This is the latest recevied weather packets stored in our database for station/object IW9CSJ-13. If no packets are shown the sender has not sent any weather packets the latest 10 day(s).
| Time | Temp. | Humidity | Pressure | Rain* | Wind** | Luminosity | Snow |
|---|---|---|---|---|---|---|---|
| 1777847723 | 14.44° C | 51% | 1019.3 hPa | 0 mm | - | - | - |
| 1777846518 | 15° C | 53% | 1019.2 hPa | 0 mm | - | - | - |
| 1777845044 | 14.44° C | 58% | 1019.2 hPa | 0 mm | - | - | - |
| 1777844716 | 14.44° C | 60% | 1019.2 hPa | 0 mm | - | - | - |
| 1777844121 | 13.89° C | 63% | 1019.2 hPa | 0 mm | - | - | - |
| 1777843525 | 13.89° C | 66% | 1019.2 hPa | 0 mm | - | - | - |
| 1777842625 | 13.89° C | 67% | 1019.3 hPa | 0 mm | - | - | - |
| 1777839925 | 13.89° C | 67% | 1019.3 hPa | 0 mm | - | - | - |
| 1777839620 | 13.89° C | 66% | 1019 hPa | 0 mm | - | - | - |
| 1777838117 | 13.89° C | 65% | 1018.9 hPa | 0 mm | - | - | - |
| 1777836315 | 15° C | 62% | 1019 hPa | 0 mm | - | - | - |
| 1777835719 | 15° C | 61% | 1018.8 hPa | 0 mm | - | - | - |
| 1777834817 | 15° C | 62% | 1018.6 hPa | 0 mm | - | - | - |
| 1777834517 | 15° C | 60% | 1018.6 hPa | 0 mm | - | - | - |
| 1777834221 | 15° C | 61% | 1018.5 hPa | 0 mm | - | - | - |
| 1777833019 | 15° C | 64% | 1018.4 hPa | 0 mm | - | - | - |
| 1777832422 | 15° C | 65% | 1018.3 hPa | 0 mm | - | - | - |
| 1777831816 | 15° C | 62% | 1018.3 hPa | 0 mm | - | - | - |
| 1777831517 | 15° C | 62% | 1018.1 hPa | 0 mm | - | - | - |
| 1777830620 | 15° C | 61% | 1018 hPa | 0 mm | - | - | - |
| 1777828525 | 16.11° C | 56% | 1017.9 hPa | 0 mm | - | - | - |
| 1777828238 | 16.11° C | 56% | 1017.8 hPa | 0 mm | - | - | - |
| 1777827027 | 16.11° C | 56% | 1017.8 hPa | 0 mm | - | - | - |
| 1777824920 | 16.67° C | 57% | 1017.4 hPa | 0 mm | - | - | - |
| 1777820440 | 17.22° C | 60% | 1017.4 hPa | 0 mm | - | - | - |
* Rain latest hour (hover to see other rain measurements)
** Current wind speed in m/s (hover to see current wind gust speed)